2MI4 weather

Mc Jilton Field
St Louis, Michigan, United States

Public forecast

Using degrees Fahrenheit for public forecast. Weather courtesy of forecast.io.

METAR (pilot weather report)

Closest report is Gratiot Community Airport, 7.1 nm (13.2 km) SW. Retrieved 2019/09/16 13:38 UTC (0 seconds ago):

KAMN 161338Z AUTO 00000KT 10SM OVC023 18/17 A3014 RMK AO2 T01800165

TAF (pilot weather forecast)

Closest forecast is MBS International Airport, 22.8 nm (42.1 km) ENE. Retrieved 2019/09/16 12:22 UTC (1 hour ago):

TAF KMBS 161120Z 1612/1712 VRB03KT 3SM BR OVC003 TEMPO 1612/1614 5SM BR SCT003 FM161400 02006KT P6SM BKN022 OVC035 FM161800 04010KT P6SM BKN040 FM162300 06006KT P6SM SCT035 FM170900 02003KT 6SM BR SCT030